createdAt,value
2017-11-15T00:01:00.631Z,89.45
2017-11-15T00:02:04.189Z,89.88
2017-11-15T00:03:07.669Z,89.95
2017-11-15T00:04:11.162Z,89.51
2017-11-15T00:05:14.672Z,89.00
2017-11-15T00:06:18.187Z,88.72
2017-11-15T00:07:21.966Z,88.25
2017-11-15T00:08:25.944Z,88.34
2017-11-15T00:09:29.437Z,88.11
2017-11-15T00:10:32.942Z,88.39
2017-11-15T00:11:36.471Z,88.27
2017-11-15T00:12:40.043Z,89.02
2017-11-15T00:13:43.977Z,88.99
2017-11-15T00:14:47.530Z,88.90
2017-11-15T00:15:51.092Z,88.88
2017-11-15T00:16:54.803Z,89.14
2017-11-15T00:17:58.486Z,88.20
2017-11-15T00:19:02.066Z,88.54
2017-11-15T00:20:05.989Z,89.06
2017-11-15T00:21:09.594Z,89.06
2017-11-15T00:22:17.534Z,89.24
2017-11-15T00:23:21.126Z,89.04
2017-11-15T00:24:24.706Z,88.70
2017-11-15T00:25:28.254Z,88.31
2017-11-15T00:26:32.151Z,88.39
2017-11-15T00:27:35.715Z,87.13
2017-11-15T00:28:39.326Z,86.77
2017-11-15T00:29:42.958Z,87.13
2017-11-15T00:30:46.524Z,88.42
2017-11-15T00:31:50.039Z,88.72
2017-11-15T00:32:54.082Z,89.32
2017-11-15T00:33:57.867Z,89.06
2017-11-15T00:35:01.701Z,89.06
2017-11-15T00:36:05.318Z,88.85
2017-11-15T00:37:08.903Z,88.81
2017-11-15T00:38:12.573Z,88.48
2017-11-15T00:39:16.482Z,88.25
2017-11-15T00:40:20.071Z,88.35
2017-11-15T00:41:23.716Z,88.23
2017-11-15T00:42:27.427Z,88.43
2017-11-15T00:43:30.993Z,87.87
2017-11-15T00:44:34.571Z,87.94
2017-11-15T00:45:38.406Z,88.03
2017-11-15T00:46:42.034Z,88.18
2017-11-15T00:47:45.710Z,87.96
2017-11-15T00:48:49.452Z,87.52
2017-11-15T00:49:53.124Z,86.75
2017-11-15T00:50:56.698Z,86.64
2017-11-15T00:52:00.654Z,86.83
2017-11-15T00:53:04.273Z,87.45
2017-11-15T00:54:08.024Z,87.50
2017-11-15T00:55:11.622Z,87.31
2017-11-15T00:56:15.226Z,87.93
2017-11-15T00:57:18.826Z,87.84
2017-11-15T00:58:23.034Z,87.89
2017-11-15T00:59:26.645Z,87.63
2017-11-15T01:00:30.233Z,87.62
2017-11-15T01:01:33.786Z,87.57
2017-11-15T01:02:37.443Z,87.88
2017-11-15T01:03:41.052Z,87.65
2017-11-15T01:04:44.946Z,87.14
2017-11-15T01:05:48.511Z,87.22
2017-11-15T01:06:52.107Z,86.96
2017-11-15T01:07:55.678Z,86.77
2017-11-15T01:08:59.248Z,87.50
2017-11-15T01:10:02.936Z,89.05
2017-11-15T01:11:06.859Z,89.02
2017-11-15T01:12:10.336Z,88.89
2017-11-15T01:13:13.836Z,88.82
2017-11-15T01:14:17.342Z,88.34
2017-11-15T01:15:20.814Z,87.69
2017-11-15T01:16:24.395Z,87.68
2017-11-15T01:17:28.298Z,87.42
2017-11-15T01:18:31.938Z,87.44
2017-11-15T01:19:35.522Z,87.42
2017-11-15T01:20:39.151Z,87.04
2017-11-15T01:21:42.745Z,86.68
2017-11-15T01:22:46.316Z,86.53
2017-11-15T01:23:50.287Z,86.40
2017-11-15T01:24:53.903Z,86.56
2017-11-15T01:25:57.523Z,87.22
2017-11-15T01:27:01.097Z,87.34
2017-11-15T01:28:04.706Z,87.57
2017-11-15T01:29:08.309Z,87.48
2017-11-15T01:30:12.175Z,87.52
2017-11-15T01:31:15.740Z,87.04
2017-11-15T01:32:19.340Z,86.78
2017-11-15T01:33:22.894Z,87.15
2017-11-15T01:34:26.479Z,87.13
2017-11-15T01:35:30.049Z,87.29
2017-11-15T01:36:33.986Z,87.21
2017-11-15T01:37:37.590Z,86.79
2017-11-15T01:38:41.192Z,86.35
2017-11-15T01:39:44.779Z,86.20
2017-11-15T01:40:48.360Z,85.87
2017-11-15T01:41:51.935Z,85.20
2017-11-15T01:42:55.788Z,84.96
2017-11-15T01:43:59.593Z,84.57
2017-11-15T01:45:03.210Z,84.23
2017-11-15T01:46:06.845Z,84.17
2017-11-15T01:47:10.410Z,84.12
2017-11-15T01:48:14.011Z,84.09
2017-11-15T01:49:17.918Z,84.11
2017-11-15T01:50:24.335Z,83.95
2017-11-15T01:51:27.966Z,84.05
2017-11-15T01:52:31.548Z,83.98
2017-11-15T01:53:35.175Z,84.05
2017-11-15T01:54:38.765Z,84.70
2017-11-15T01:55:42.632Z,85.02
2017-11-15T01:56:46.372Z,84.91
2017-11-15T01:57:49.972Z,84.88
2017-11-15T01:58:53.662Z,85.11
2017-11-15T01:59:57.392Z,85.59
2017-11-15T02:01:07.342Z,85.87
2017-11-15T02:02:12.462Z,86.39
2017-11-15T02:03:16.006Z,86.45
2017-11-15T02:04:19.682Z,86.60
2017-11-15T02:05:23.237Z,86.41
2017-11-15T02:06:26.790Z,86.72
2017-11-15T02:07:30.702Z,87.31
2017-11-15T02:08:34.298Z,87.52
2017-11-15T02:09:37.871Z,87.03
2017-11-15T02:10:41.547Z,86.76
2017-11-15T02:11:45.165Z,86.49
2017-11-15T02:12:48.706Z,86.21
2017-11-15T02:13:52.776Z,85.93
2017-11-15T02:14:56.378Z,85.72
2017-11-15T02:15:59.942Z,85.53
2017-11-15T02:17:05.246Z,85.23
2017-11-15T02:18:08.711Z,85.02
2017-11-15T02:19:12.309Z,85.01
2017-11-15T02:20:16.313Z,85.08
2017-11-15T02:21:19.918Z,84.96
2017-11-15T02:22:23.503Z,84.76
2017-11-15T02:23:27.728Z,84.95
2017-11-15T02:24:31.302Z,84.94
2017-11-15T02:25:34.871Z,85.02
2017-11-15T02:26:38.771Z,85.27
2017-11-15T02:27:42.375Z,85.72
2017-11-15T02:28:45.916Z,86.20
2017-11-15T02:29:50.428Z,86.65
2017-11-15T02:30:53.928Z,86.66
2017-11-15T02:31:57.421Z,86.87
2017-11-15T02:33:03.845Z,88.10
2017-11-15T02:34:07.605Z,88.59
2017-11-15T02:35:11.371Z,89.46
2017-11-15T02:36:15.093Z,89.31
2017-11-15T02:37:18.559Z,89.45
2017-11-15T02:38:22.604Z,89.83
2017-11-15T02:39:26.551Z,89.97
2017-11-15T02:40:30.235Z,90.04
2017-11-15T02:41:33.880Z,89.88
2017-11-15T02:42:37.534Z,89.51
2017-11-15T02:43:41.151Z,89.39
2017-11-15T02:44:44.757Z,89.37
2017-11-15T02:45:48.653Z,89.46
2017-11-15T02:46:52.277Z,89.59
2017-11-15T02:47:55.845Z,89.35
2017-11-15T02:48:59.480Z,89.46
2017-11-15T02:50:03.102Z,89.74
2017-11-15T02:51:06.640Z,89.86
2017-11-15T02:52:10.459Z,89.95
2017-11-15T02:53:13.988Z,89.81
2017-11-15T02:54:17.511Z,89.43
2017-11-15T02:55:21.046Z,88.87
2017-11-15T02:56:24.625Z,88.54
2017-11-15T02:59:49.689Z,88.78
2017-11-15T03:00:53.499Z,89.15
2017-11-15T03:01:57.107Z,89.19
2017-11-15T03:03:00.759Z,89.60
2017-11-15T03:04:04.400Z,89.29
2017-11-15T03:05:08.253Z,89.03
2017-11-15T03:06:11.868Z,88.71
2017-11-15T03:07:15.511Z,88.57
2017-11-15T03:08:19.159Z,88.55
2017-11-15T03:09:22.793Z,89.21
2017-11-15T03:10:26.400Z,89.18
2017-11-15T03:11:30.313Z,89.77
2017-11-15T03:12:33.927Z,90.09
2017-11-15T03:13:37.543Z,89.99
2017-11-15T03:14:41.189Z,89.75
2017-11-15T03:15:44.822Z,89.50
2017-11-15T03:16:48.464Z,88.95
2017-11-15T03:17:52.536Z,88.72
2017-11-15T03:18:56.757Z,88.58
2017-11-15T03:20:00.390Z,88.51
2017-11-15T03:21:08.108Z,88.42
2017-11-15T03:22:11.721Z,87.81
2017-11-15T03:23:15.389Z,87.55
2017-11-15T03:24:19.411Z,87.61
2017-11-15T03:25:23.043Z,87.59
2017-11-15T03:26:26.792Z,87.54
2017-11-15T03:27:30.427Z,87.51
2017-11-15T03:28:34.033Z,87.68
2017-11-15T03:29:37.781Z,87.81
2017-11-15T03:30:41.729Z,87.73
2017-11-15T03:31:45.346Z,87.51
2017-11-15T03:32:48.994Z,87.47
2017-11-15T03:33:52.627Z,87.38
2017-11-15T03:34:56.345Z,87.21
2017-11-15T03:36:00.031Z,86.91
2017-11-15T03:37:03.977Z,86.67
2017-11-15T03:47:47.942Z,86.70
2017-11-15T03:50:05.812Z,90.71
2017-11-15T03:51:09.633Z,90.81
2017-11-15T03:52:13.304Z,90.49
2017-11-15T03:53:16.970Z,90.07
2017-11-15T03:54:20.591Z,89.72
2017-11-15T03:55:24.474Z,89.35
2017-11-15T03:56:28.237Z,88.98
2017-11-15T03:57:31.761Z,88.60
2017-11-15T03:58:35.215Z,88.34
2017-11-15T03:59:38.852Z,88.04
2017-11-15T04:00:42.483Z,87.64
2017-11-15T04:01:46.340Z,87.44
2017-11-15T04:02:49.967Z,87.42
2017-11-15T04:03:53.515Z,87.41
2017-11-15T04:04:57.061Z,87.26
2017-11-15T04:06:00.861Z,87.00
2017-11-15T04:07:05.153Z,86.65
2017-11-15T04:08:08.992Z,86.42
2017-11-15T04:09:12.369Z,86.40
2017-11-15T04:10:15.906Z,86.50
2017-11-15T04:11:20.295Z,86.43
2017-11-15T04:12:23.955Z,86.28
2017-11-15T04:13:27.624Z,86.36
2017-11-15T04:14:31.547Z,86.28
2017-11-15T04:15:35.214Z,86.26
2017-11-15T04:16:38.742Z,86.05
2017-11-15T04:17:42.352Z,85.91
2017-11-15T04:18:45.993Z,85.96
2017-11-15T04:19:49.411Z,85.85
2017-11-15T04:20:53.167Z,85.67
2017-11-15T04:21:56.554Z,85.71
2017-11-15T04:23:00.048Z,85.68
2017-11-15T04:24:03.589Z,85.65
2017-11-15T04:25:07.204Z,85.42
2017-11-15T04:26:10.834Z,85.36
2017-11-15T04:27:14.760Z,85.37
2017-11-15T04:28:18.393Z,85.04
2017-11-15T04:29:22.123Z,85.01
2017-11-15T04:30:25.763Z,85.46
2017-11-15T04:31:29.393Z,85.61
2017-11-15T04:32:33.080Z,85.98
2017-11-15T04:33:37.065Z,86.46
2017-11-15T04:34:40.764Z,86.58
2017-11-15T04:35:44.490Z,87.14
2017-11-15T04:36:48.221Z,87.85
2017-11-15T04:37:51.875Z,88.05
2017-11-15T04:38:55.565Z,88.49
2017-11-15T04:39:59.543Z,88.59
2017-11-15T04:41:03.195Z,88.49
2017-11-15T04:42:06.839Z,88.49
2017-11-15T04:43:10.555Z,88.43
2017-11-15T04:44:14.361Z,88.24
2017-11-15T04:45:18.115Z,88.19
2017-11-15T04:46:22.031Z,87.99
2017-11-15T04:47:25.837Z,87.74
2017-11-15T04:48:29.568Z,87.57
2017-11-15T04:49:33.322Z,87.35
2017-11-15T04:50:36.956Z,87.12
2017-11-15T04:51:40.663Z,86.85
2017-11-15T04:52:44.582Z,86.77
2017-11-15T04:53:48.242Z,86.83
2017-11-15T04:54:51.910Z,86.77
2017-11-15T04:55:55.565Z,86.62
2017-11-15T04:56:59.276Z,86.56
2017-11-15T04:58:02.898Z,86.49
2017-11-15T04:59:06.859Z,86.40
2017-11-15T05:00:10.573Z,86.31
2017-11-15T05:01:14.338Z,86.29
2017-11-15T05:02:18.026Z,86.36
2017-11-15T05:03:21.776Z,86.60
2017-11-15T05:04:26.050Z,86.60
2017-11-15T05:05:30.046Z,86.58
2017-11-15T05:06:33.670Z,86.53
2017-11-15T05:07:37.311Z,86.60
2017-11-15T05:08:40.965Z,86.66
2017-11-15T05:09:44.593Z,86.65
2017-11-15T05:10:48.236Z,86.81
2017-11-15T05:11:52.230Z,86.86
2017-11-15T05:12:55.876Z,86.70
2017-11-15T05:13:59.554Z,86.57
2017-11-15T05:15:03.218Z,86.42
2017-11-15T05:16:06.908Z,86.18
2017-11-15T05:17:10.531Z,85.95
2017-11-15T05:18:14.542Z,85.82
2017-11-15T05:19:18.219Z,85.83
2017-11-15T05:20:21.817Z,85.64
2017-11-15T05:21:25.505Z,85.43
2017-11-15T05:22:29.139Z,85.45
2017-11-15T05:23:32.815Z,85.61
2017-11-15T05:24:36.851Z,85.91
2017-11-15T05:25:40.493Z,86.17
2017-11-15T05:26:44.136Z,86.13
2017-11-15T05:27:47.830Z,86.02
2017-11-15T05:28:51.451Z,85.96
2017-11-15T05:29:55.126Z,85.84
2017-11-15T05:30:59.067Z,85.64
2017-11-15T05:32:02.707Z,85.49
2017-11-15T05:33:06.354Z,85.71
2017-11-15T05:34:09.998Z,85.64
2017-11-15T05:35:13.649Z,85.47
2017-11-15T05:36:17.237Z,85.34
2017-11-15T05:37:21.171Z,85.37
2017-11-15T05:38:24.806Z,85.53
2017-11-15T05:39:28.433Z,85.69
2017-11-15T05:40:32.066Z,85.84
2017-11-15T05:41:35.953Z,86.14
2017-11-15T05:42:39.485Z,86.37
2017-11-15T05:43:43.335Z,86.42
2017-11-15T05:44:46.703Z,86.34
2017-11-15T05:45:50.177Z,86.19
2017-11-15T05:46:53.559Z,86.01
2017-11-15T05:47:57.040Z,85.91
2017-11-15T05:49:00.722Z,85.71
2017-11-15T05:50:04.675Z,85.83
2017-11-15T05:51:08.290Z,85.78
2017-11-15T05:52:11.906Z,85.76
2017-11-15T05:53:15.501Z,85.90
2017-11-15T05:54:19.129Z,86.15
2017-11-15T05:55:22.717Z,86.36
2017-11-15T05:56:26.726Z,86.80
2017-11-15T05:57:30.416Z,87.51
2017-11-15T05:58:33.881Z,88.25
2017-11-15T06:00:50.279Z,89.11
2017-11-15T06:01:53.980Z,89.75
2017-11-15T06:02:57.549Z,90.27
2017-11-15T06:04:01.101Z,90.39
2017-11-15T06:05:05.144Z,90.35
2017-11-15T06:06:08.792Z,90.17
2017-11-15T06:07:12.459Z,90.26
2017-11-15T06:08:16.425Z,90.93
2017-11-15T06:09:20.248Z,91.43
2017-11-15T06:10:23.991Z,91.59
2017-11-15T06:11:27.732Z,91.88
2017-11-15T06:12:31.656Z,91.79
2017-11-15T06:13:35.333Z,91.75
2017-11-15T06:14:39.547Z,91.51
2017-11-15T06:15:43.357Z,91.15
2017-11-15T06:16:46.920Z,91.09
2017-11-15T06:17:51.720Z,91.25
2017-11-15T06:18:55.228Z,91.16
2017-11-15T06:19:58.855Z,91.00
2017-11-15T06:21:02.808Z,91.28
2017-11-15T06:22:06.375Z,91.36
2017-11-15T06:23:10.189Z,90.89
2017-11-15T06:24:13.975Z,90.84
2017-11-15T06:25:18.663Z,90.27
2017-11-15T06:26:22.524Z,89.45
2017-11-15T06:27:26.823Z,89.45
2017-11-15T06:28:30.427Z,89.41
2017-11-15T06:29:34.084Z,89.41
2017-11-15T06:30:37.625Z,89.41
2017-11-15T06:31:41.254Z,90.12
2017-11-15T06:32:44.889Z,90.20
2017-11-15T06:33:49.052Z,90.64
2017-11-15T06:34:53.576Z,90.84
2017-11-15T06:35:57.265Z,90.82
2017-11-15T06:37:00.888Z,90.64
2017-11-15T06:38:04.604Z,90.79
2017-11-15T06:39:08.253Z,90.77
2017-11-15T06:40:12.367Z,90.72
2017-11-15T06:41:16.048Z,90.59
2017-11-15T06:42:19.702Z,90.52
2017-11-15T06:43:24.336Z,90.27
2017-11-15T06:44:27.991Z,89.82
2017-11-15T06:45:31.765Z,89.44
2017-11-15T06:46:35.665Z,89.05
2017-11-15T06:47:39.349Z,88.82
2017-11-15T06:48:43.014Z,88.81
2017-11-15T06:49:46.661Z,88.45
2017-11-15T06:50:50.312Z,88.03
2017-11-15T06:51:54.016Z,87.61
2017-11-15T06:52:58.142Z,87.39
2017-11-15T06:54:01.789Z,87.57
2017-11-15T06:55:05.492Z,87.81
2017-11-15T06:56:09.152Z,87.63
2017-11-15T06:57:12.838Z,87.22
2017-11-15T06:58:16.496Z,87.10
2017-11-15T06:59:20.714Z,86.96
2017-11-15T07:00:24.359Z,86.71
2017-11-15T07:01:28.316Z,86.66
2017-11-15T07:02:32.091Z,86.59
2017-11-15T07:03:35.858Z,86.79
2017-11-15T07:04:39.634Z,87.02
2017-11-15T07:05:43.663Z,87.26
2017-11-15T07:06:47.397Z,87.14
2017-11-15T07:07:51.139Z,86.88
2017-11-15T07:08:54.911Z,86.90
2017-11-15T07:09:58.638Z,86.73
2017-11-15T07:11:02.340Z,86.43
2017-11-15T07:12:06.422Z,86.21
2017-11-15T07:13:10.708Z,86.22
2017-11-15T07:14:14.365Z,86.36
2017-11-15T07:15:18.711Z,86.34
2017-11-15T07:16:22.481Z,86.25
2017-11-15T07:17:26.168Z,86.51
2017-11-15T07:18:30.425Z,86.30
2017-11-15T07:19:34.014Z,86.39
2017-11-15T07:20:37.792Z,86.14
2017-11-15T07:21:41.297Z,85.76
2017-11-15T07:22:44.872Z,85.66
2017-11-15T07:23:48.368Z,85.85
2017-11-15T07:24:52.511Z,85.81
2017-11-15T07:25:56.161Z,85.98
2017-11-15T07:26:59.852Z,86.10
2017-11-15T07:28:03.553Z,86.07
2017-11-15T07:29:07.216Z,85.99
2017-11-15T07:30:10.904Z,85.73
2017-11-15T07:31:14.887Z,85.99
2017-11-15T07:32:18.507Z,86.21
2017-11-15T07:33:22.179Z,86.07
2017-11-15T07:34:25.867Z,85.84
2017-11-15T07:35:29.585Z,85.62
2017-11-15T07:36:33.260Z,85.30
2017-11-15T07:37:37.192Z,85.28
2017-11-15T07:38:40.859Z,86.55
2017-11-15T07:39:44.527Z,87.28
2017-11-15T07:40:48.263Z,87.71
2017-11-15T07:41:51.959Z,87.94
2017-11-15T07:42:55.652Z,88.32
2017-11-15T07:43:59.616Z,88.75
2017-11-15T07:45:03.208Z,89.48
2017-11-15T07:46:06.875Z,89.60
2017-11-15T07:47:10.461Z,89.59
2017-11-15T07:48:14.063Z,89.66
2017-11-15T07:49:17.642Z,89.81
2017-11-15T07:50:21.710Z,89.86
2017-11-15T07:51:25.410Z,89.65
2017-11-15T07:52:29.146Z,88.93
2017-11-15T07:53:32.838Z,88.16
2017-11-15T07:54:36.456Z,87.94
2017-11-15T07:55:40.815Z,87.65
2017-11-15T07:56:44.859Z,87.32
2017-11-15T07:57:48.665Z,86.86
2017-11-15T07:58:52.317Z,86.93
2017-11-15T07:59:55.818Z,86.99
2017-11-15T08:00:59.357Z,86.71
2017-11-15T08:02:03.045Z,86.53
2017-11-15T08:04:26.230Z,86.25
2017-11-15T08:05:29.864Z,85.98
2017-11-15T08:06:33.599Z,85.71
2017-11-15T08:07:37.283Z,85.64
2017-11-15T08:08:40.957Z,85.54
2017-11-15T08:09:45.020Z,85.92
2017-11-15T08:10:48.769Z,86.42
2017-11-15T08:11:52.408Z,87.09
2017-11-15T08:12:56.084Z,87.25
2017-11-15T08:14:03.317Z,86.93
2017-11-15T08:15:07.364Z,86.63
2017-11-15T08:16:11.144Z,86.58
2017-11-15T08:17:14.964Z,86.80
2017-11-15T08:18:18.853Z,86.98
2017-11-15T08:19:23.411Z,86.92
2017-11-15T08:20:27.481Z,87.00
2017-11-15T08:21:31.408Z,86.96
2017-11-15T08:22:35.625Z,86.58
2017-11-15T08:23:39.285Z,86.53
2017-11-15T08:26:02.013Z,86.66
2017-11-15T08:27:05.743Z,86.95
2017-11-15T08:28:09.883Z,87.24
2017-11-15T08:29:13.494Z,87.45
2017-11-15T08:30:17.186Z,87.50
2017-11-15T08:31:20.858Z,87.45
2017-11-15T08:32:24.557Z,87.22
2017-11-15T08:33:28.255Z,86.92
2017-11-15T08:34:32.390Z,86.46
2017-11-15T08:35:36.212Z,85.98
2017-11-15T08:36:39.870Z,85.78
2017-11-15T08:37:43.485Z,85.77
2017-11-15T08:38:47.368Z,85.84
2017-11-15T08:39:51.153Z,85.41
2017-11-15T08:40:55.193Z,85.34
2017-11-15T08:41:58.851Z,85.58
2017-11-15T08:43:02.676Z,85.70
2017-11-15T08:44:06.359Z,85.70
2017-11-15T08:45:10.054Z,86.00
2017-11-15T08:46:13.767Z,86.00
2017-11-15T08:47:17.903Z,86.01
2017-11-15T08:48:21.551Z,86.15
2017-11-15T08:49:25.285Z,86.93
2017-11-15T08:50:28.887Z,87.18
2017-11-15T08:51:32.577Z,87.64
2017-11-15T08:52:36.299Z,88.00
2017-11-15T08:53:40.468Z,88.19
2017-11-15T08:54:44.400Z,88.50
2017-11-15T08:55:48.151Z,89.45
2017-11-15T08:56:51.954Z,89.84
2017-11-15T08:57:55.715Z,90.33
2017-11-15T08:58:59.553Z,90.60
2017-11-15T09:01:50.561Z,90.54
2017-11-15T09:02:54.265Z,90.28
2017-11-15T09:03:58.074Z,89.48
2017-11-15T09:05:01.814Z,88.79
2017-11-15T09:06:05.682Z,88.32
2017-11-15T09:07:09.900Z,88.10
2017-11-15T09:08:13.686Z,88.46
2017-11-15T09:09:17.532Z,88.11
2017-11-15T09:10:21.450Z,87.91
2017-11-15T09:11:25.315Z,87.62
2017-11-15T09:12:29.063Z,87.40
2017-11-15T09:13:33.237Z,87.41
2017-11-15T09:14:36.990Z,87.68
2017-11-15T09:15:40.886Z,88.23
2017-11-15T09:16:45.079Z,88.45
2017-11-15T09:17:48.846Z,88.44
2017-11-15T09:18:52.569Z,88.65
2017-11-15T09:19:57.095Z,88.84
2017-11-15T09:21:01.032Z,89.05
2017-11-15T09:22:04.807Z,89.08
2017-11-15T09:23:08.629Z,88.99
2017-11-15T09:24:12.415Z,88.76
2017-11-15T09:25:16.239Z,88.17
2017-11-15T09:26:20.536Z,87.47
2017-11-15T09:27:24.289Z,87.22
2017-11-15T09:28:30.871Z,87.25
2017-11-15T09:29:34.665Z,87.43
2017-11-15T09:30:38.684Z,87.28
2017-11-15T09:31:42.446Z,86.80
2017-11-15T09:32:46.562Z,86.90
2017-11-15T09:33:50.354Z,87.19
2017-11-15T09:34:54.236Z,87.48
2017-11-15T09:35:58.004Z,87.31
2017-11-15T09:37:02.332Z,86.85
2017-11-15T09:38:06.124Z,86.39
2017-11-15T09:39:10.202Z,85.72
2017-11-15T09:40:14.130Z,85.26
2017-11-15T09:41:17.887Z,85.01
2017-11-15T09:42:22.096Z,85.12
2017-11-15T09:43:25.946Z,84.93
2017-11-15T09:44:29.805Z,84.76
2017-11-15T09:45:34.149Z,84.29
2017-11-15T09:46:38.069Z,84.14
2017-11-15T09:47:41.895Z,83.73
2017-11-15T09:48:45.820Z,83.79
2017-11-15T09:49:49.841Z,83.75
2017-11-15T09:50:54.313Z,83.04
2017-11-15T09:51:58.819Z,82.72
2017-11-15T09:53:03.200Z,82.55
2017-11-15T09:54:06.996Z,82.35
2017-11-15T09:55:10.811Z,82.52
2017-11-15T09:56:15.840Z,83.25
2017-11-15T09:57:20.123Z,83.94
2017-11-15T09:58:24.404Z,84.85
2017-11-15T09:59:28.285Z,85.07
2017-11-15T10:00:32.138Z,85.22
2017-11-15T10:01:36.360Z,86.41
2017-11-15T10:02:40.567Z,86.41
2017-11-15T10:03:44.558Z,86.57
2017-11-15T10:04:48.661Z,87.58
2017-11-15T10:05:52.826Z,87.30
2017-11-15T10:06:56.662Z,87.77
2017-11-15T10:08:00.564Z,88.26
2017-11-15T10:09:04.948Z,88.25
2017-11-15T10:10:08.811Z,88.00
2017-11-15T10:11:12.847Z,87.50
2017-11-15T10:12:16.863Z,87.22
2017-11-15T10:13:20.728Z,86.76
2017-11-15T10:14:24.627Z,86.54
2017-11-15T10:15:28.497Z,85.62
2017-11-15T10:16:32.397Z,85.48
2017-11-15T10:17:37.175Z,85.95
2017-11-15T10:18:41.030Z,86.15
2017-11-15T10:19:44.816Z,86.51
2017-11-15T10:20:48.689Z,87.58
2017-11-15T10:21:53.347Z,87.92
2017-11-15T10:22:57.252Z,88.47
2017-11-15T10:24:01.425Z,88.04
2017-11-15T10:25:05.305Z,87.92
2017-11-15T10:26:09.132Z,88.05
2017-11-15T10:27:12.907Z,88.07
2017-11-15T10:28:17.057Z,87.64
2017-11-15T10:29:20.861Z,87.41
2017-11-15T10:30:25.155Z,87.53
2017-11-15T10:31:29.053Z,86.82
2017-11-15T10:32:32.930Z,86.63
2017-11-15T10:33:36.782Z,86.14
2017-11-15T10:34:40.621Z,84.85
2017-11-15T10:35:45.033Z,84.16
2017-11-15T10:36:48.856Z,84.96
2017-11-15T10:37:52.711Z,86.45
2017-11-15T10:38:56.594Z,86.77
2017-11-15T10:40:00.440Z,87.23
2017-11-15T10:41:04.307Z,87.29
2017-11-15T10:42:08.513Z,87.05
2017-11-15T10:43:12.397Z,87.13
2017-11-15T10:44:16.223Z,86.50
2017-11-15T10:45:20.185Z,87.03
2017-11-15T10:46:24.065Z,87.67
2017-11-15T10:47:27.986Z,88.04
2017-11-15T10:48:32.295Z,87.47
2017-11-15T10:49:36.172Z,87.50
2017-11-15T10:50:40.074Z,87.63
2017-11-15T10:51:44.011Z,87.29
2017-11-15T10:52:47.978Z,86.45
2017-11-15T10:53:51.904Z,84.59
2017-11-15T10:54:56.380Z,83.93
2017-11-15T10:56:00.334Z,84.41
2017-11-15T10:57:04.280Z,84.58
2017-11-15T10:58:08.224Z,84.42
2017-11-15T10:59:13.004Z,84.42
2017-11-15T11:00:17.589Z,84.33
2017-11-15T11:01:21.560Z,84.15
2017-11-15T11:02:25.548Z,84.63
2017-11-15T11:03:29.499Z,84.77
2017-11-15T11:04:33.451Z,84.28
2017-11-15T11:05:37.402Z,83.94
2017-11-15T11:06:41.375Z,82.62
2017-11-15T11:07:45.696Z,83.10
2017-11-15T11:08:49.555Z,83.47
2017-11-15T11:09:53.383Z,82.97
2017-11-15T11:10:57.217Z,83.13
2017-11-15T11:12:01.094Z,82.34
2017-11-15T11:13:05.078Z,82.24
2017-11-15T11:14:09.029Z,82.00
2017-11-15T11:15:13.152Z,81.49
2017-11-15T11:16:17.982Z,80.84
2017-11-15T11:17:21.852Z,81.89
2017-11-15T11:18:25.689Z,82.70
2017-11-15T11:19:29.868Z,83.19
2017-11-15T11:20:33.754Z,83.81
2017-11-15T11:21:37.601Z,83.80
2017-11-15T11:22:41.500Z,82.58
2017-11-15T11:23:45.440Z,82.86
2017-11-15T11:24:49.309Z,83.24
2017-11-15T11:25:53.671Z,83.26
2017-11-15T11:26:57.528Z,82.92
2017-11-15T11:28:01.373Z,82.93
2017-11-15T11:29:05.107Z,83.14
2017-11-15T11:30:09.513Z,82.03
2017-11-15T11:31:13.285Z,82.50
2017-11-15T11:32:17.430Z,83.15
2017-11-15T11:33:21.296Z,84.28
2017-11-15T11:34:25.080Z,85.12
2017-11-15T11:35:29.327Z,84.50
2017-11-15T11:36:33.064Z,84.35
2017-11-15T11:37:36.920Z,84.41
2017-11-15T11:38:40.775Z,84.25
2017-11-15T11:39:44.537Z,83.47
2017-11-15T11:40:48.255Z,83.62
2017-11-15T11:41:52.069Z,84.25
2017-11-15T11:42:55.857Z,84.42
2017-11-15T11:43:59.922Z,84.72
2017-11-15T11:45:03.695Z,85.10
2017-11-15T11:46:07.946Z,84.94
2017-11-15T11:47:11.633Z,84.45
2017-11-15T11:48:15.256Z,84.55
2017-11-15T11:49:18.956Z,84.80
2017-11-15T11:50:22.998Z,85.12
2017-11-15T11:51:26.851Z,85.09
2017-11-15T11:52:30.731Z,84.91
2017-11-15T11:53:34.527Z,84.40
2017-11-15T11:54:38.316Z,83.68
2017-11-15T11:55:42.119Z,83.00
2017-11-15T11:56:46.441Z,83.01
2017-11-15T11:57:50.209Z,83.35
2017-11-15T11:58:54.052Z,83.11
2017-11-15T11:59:57.799Z,83.42
2017-11-15T12:01:01.630Z,83.00
2017-11-15T12:02:05.402Z,83.76
2017-11-15T12:03:10.880Z,83.99
2017-11-15T12:04:14.760Z,83.62
2017-11-15T12:05:18.776Z,83.19
2017-11-15T12:06:22.598Z,82.62
2017-11-15T12:07:26.460Z,82.59
2017-11-15T12:08:30.292Z,82.94
2017-11-15T12:09:34.623Z,82.71
2017-11-15T12:10:38.496Z,81.97
2017-11-15T12:11:42.442Z,81.62
2017-11-15T12:12:46.237Z,81.24
2017-11-15T12:13:50.033Z,81.20
2017-11-15T12:14:53.836Z,81.01
2017-11-15T12:15:58.146Z,80.49
2017-11-15T12:17:02.066Z,80.38
2017-11-15T12:18:05.886Z,79.84
2017-11-15T12:19:09.945Z,79.27
2017-11-15T12:20:13.826Z,79.32
2017-11-15T12:21:17.634Z,80.55
2017-11-15T12:22:21.926Z,80.67
2017-11-15T12:23:25.811Z,79.93
2017-11-15T12:24:29.687Z,80.49
2017-11-15T12:25:33.558Z,81.31
2017-11-15T12:26:37.455Z,81.22
2017-11-15T12:27:41.406Z,80.92
2017-11-15T12:28:45.535Z,80.65
2017-11-15T12:29:49.508Z,81.21
2017-11-15T12:30:53.518Z,81.61
2017-11-15T12:31:57.511Z,81.69
2017-11-15T12:33:01.384Z,81.20
2017-11-15T12:34:05.320Z,81.63
2017-11-15T12:35:09.584Z,81.23
2017-11-15T12:36:13.631Z,80.86
2017-11-15T12:37:17.505Z,81.17
2017-11-15T12:38:21.430Z,81.53
2017-11-15T12:39:25.257Z,81.88
2017-11-15T12:40:29.068Z,81.33
2017-11-15T12:41:33.385Z,80.94
2017-11-15T12:42:37.929Z,80.53
2017-11-15T12:43:41.717Z,81.12
2017-11-15T12:44:45.638Z,81.70
2017-11-15T12:45:49.455Z,81.54
2017-11-15T12:46:53.327Z,81.02
2017-11-15T12:47:57.447Z,81.60
2017-11-15T12:49:01.031Z,81.87
2017-11-15T12:50:05.448Z,81.99
2017-11-15T12:51:09.085Z,82.54
2017-11-15T12:52:12.872Z,83.22
2017-11-15T12:53:16.976Z,83.72
2017-11-15T12:54:21.078Z,83.78
2017-11-15T12:55:24.823Z,83.73
2017-11-15T12:56:28.563Z,83.55
2017-11-15T12:57:32.650Z,83.69
2017-11-15T12:58:36.343Z,83.85
2017-11-15T12:59:40.609Z,84.20
2017-11-15T13:00:44.313Z,84.18
2017-11-15T13:01:48.100Z,84.34
2017-11-15T13:02:53.073Z,83.95
2017-11-15T13:03:57.296Z,83.21
2017-11-15T13:05:01.634Z,82.50
2017-11-15T13:06:07.837Z,81.81
2017-11-15T13:07:11.938Z,81.84
2017-11-15T13:08:15.833Z,81.50
2017-11-15T13:09:19.738Z,81.95
2017-11-15T13:10:23.733Z,82.53
2017-11-15T13:11:27.636Z,82.98
2017-11-15T13:12:31.896Z,83.20
2017-11-15T13:13:35.727Z,83.15
2017-11-15T13:14:39.551Z,82.79
2017-11-15T13:15:43.456Z,82.41
2017-11-15T13:16:47.376Z,81.69
2017-11-15T13:17:51.402Z,81.35
2017-11-15T13:18:55.626Z,81.68
2017-11-15T13:19:59.437Z,82.26
2017-11-15T13:21:03.292Z,82.25
2017-11-15T13:22:07.156Z,82.06
2017-11-15T13:23:10.967Z,81.92
2017-11-15T13:24:14.755Z,81.68
2017-11-15T13:25:18.960Z,81.74
2017-11-15T13:26:22.786Z,81.13
2017-11-15T13:27:26.838Z,80.75
2017-11-15T13:28:30.584Z,80.20
2017-11-15T13:29:34.542Z,79.68
2017-11-15T13:30:38.428Z,79.24
2017-11-15T13:31:42.658Z,78.97
2017-11-15T13:32:46.896Z,79.28
2017-11-15T13:33:50.735Z,79.33
2017-11-15T13:34:54.728Z,79.23
2017-11-15T13:35:58.663Z,79.21
2017-11-15T13:37:02.494Z,79.14
2017-11-15T13:38:06.553Z,78.87
2017-11-15T13:39:10.424Z,78.41
2017-11-15T13:40:14.447Z,78.68
2017-11-15T13:41:19.307Z,78.60
2017-11-15T13:42:23.356Z,79.42
2017-11-15T13:43:27.182Z,79.88
2017-11-15T13:44:31.326Z,79.76
2017-11-15T13:45:35.211Z,79.93
2017-11-15T13:46:39.088Z,79.85
2017-11-15T13:47:42.827Z,79.51
2017-11-15T13:48:46.740Z,79.34
2017-11-15T13:49:50.676Z,78.94
2017-11-15T13:50:54.880Z,78.67
2017-11-15T13:51:58.695Z,78.56
2017-11-15T13:53:02.605Z,78.71
2017-11-15T13:54:06.994Z,78.41
2017-11-15T13:55:10.743Z,78.64
2017-11-15T13:56:14.474Z,78.42
2017-11-15T13:57:18.641Z,78.46
2017-11-15T13:58:22.413Z,79.42
2017-11-15T13:59:26.179Z,80.48
2017-11-15T14:00:30.036Z,80.93
2017-11-15T14:01:33.839Z,81.03